createdAt,value
2022-08-30T00:00:12.592Z,2.23
2022-08-30T00:02:41.128Z,2.50
2022-08-30T00:05:10.423Z,2.80
2022-08-30T00:07:38.874Z,2.27
2022-08-30T00:10:10.587Z,3.13
2022-08-30T00:12:39.111Z,3.00
2022-08-30T00:15:09.377Z,2.23
2022-08-30T00:17:41.507Z,2.73
2022-08-30T00:20:15.382Z,2.30
2022-08-30T00:22:43.836Z,2.00
2022-08-30T00:25:15.477Z,2.63
2022-08-30T00:27:45.206Z,2.80
2022-08-30T00:30:16.605Z,2.40
2022-08-30T00:32:45.077Z,2.10
2022-08-30T00:35:20.986Z,2.33
2022-08-30T00:37:50.840Z,2.60
2022-08-30T00:40:27.132Z,2.67
2022-08-30T00:42:59.575Z,2.83
2022-08-30T00:45:32.892Z,2.50
2022-08-30T00:48:02.082Z,2.47
2022-08-30T00:50:36.196Z,2.40
2022-08-30T00:53:08.894Z,2.57
2022-08-30T00:55:39.106Z,2.23
2022-08-30T00:58:19.982Z,2.43
2022-08-30T01:00:50.092Z,2.33
2022-08-30T01:03:18.803Z,2.20
2022-08-30T01:05:49.739Z,2.13
2022-08-30T01:08:18.466Z,2.73
2022-08-30T01:10:48.549Z,2.10
2022-08-30T01:13:17.727Z,4.40
2022-08-30T01:15:47.157Z,2.33
2022-08-30T01:18:17.473Z,3.00
2022-08-30T01:20:56.224Z,2.07
2022-08-30T01:23:27.153Z,1.90
2022-08-30T01:25:57.434Z,2.90
2022-08-30T01:28:28.472Z,3.33
2022-08-30T01:30:57.367Z,2.37
2022-08-30T01:33:26.505Z,2.60
2022-08-30T01:35:57.974Z,2.30
2022-08-30T01:38:32.075Z,2.50
2022-08-30T01:41:01.968Z,2.30
2022-08-30T01:43:30.456Z,2.43
2022-08-30T01:45:58.970Z,2.90
2022-08-30T01:48:31.258Z,2.23
2022-08-30T01:51:00.241Z,2.43
2022-08-30T01:53:30.604Z,2.47
2022-08-30T01:55:59.364Z,2.40
2022-08-30T01:58:28.592Z,2.13
2022-08-30T02:00:57.537Z,2.20
2022-08-30T02:03:30.546Z,2.60
2022-08-30T02:05:59.010Z,2.13
2022-08-30T02:08:28.912Z,2.33
2022-08-30T02:10:59.357Z,2.40
2022-08-30T02:13:27.983Z,2.90
2022-08-30T02:15:56.665Z,2.30
2022-08-30T02:18:27.275Z,2.60
2022-08-30T02:20:55.821Z,2.40
2022-08-30T02:23:24.194Z,2.30
2022-08-30T02:25:54.702Z,2.40
2022-08-30T02:28:23.502Z,2.60
2022-08-30T02:30:53.658Z,2.67
2022-08-30T02:33:22.177Z,3.00
2022-08-30T02:35:50.664Z,2.50
2022-08-30T02:38:20.203Z,2.50
2022-08-30T02:40:49.055Z,2.30
2022-08-30T02:43:20.299Z,2.03
2022-08-30T02:45:49.007Z,2.73
2022-08-30T02:48:17.539Z,2.27
2022-08-30T02:50:49.148Z,2.80
2022-08-30T02:53:18.286Z,2.07
2022-08-30T02:55:46.916Z,2.30
2022-08-30T02:58:15.445Z,3.07
2022-08-30T03:00:45.394Z,2.20
2022-08-30T03:03:14.033Z,2.67
2022-08-30T03:05:42.596Z,2.43
2022-08-30T03:08:11.425Z,2.43
2022-08-30T03:10:39.934Z,2.40
2022-08-30T03:13:09.044Z,2.40
2022-08-30T03:15:40.547Z,2.60
2022-08-30T03:18:11.169Z,2.90
2022-08-30T03:20:39.777Z,2.70
2022-08-30T03:23:10.425Z,2.73
2022-08-30T03:25:50.120Z,2.63
2022-08-30T03:28:19.236Z,3.03
2022-08-30T03:30:48.161Z,2.63
2022-08-30T03:33:18.722Z,2.60
2022-08-30T03:35:50.342Z,2.80
2022-08-30T03:38:19.107Z,2.30
2022-08-30T03:40:48.258Z,2.27
2022-08-30T03:43:16.880Z,2.57
2022-08-30T03:45:45.936Z,2.93
2022-08-30T03:48:14.423Z,2.53
2022-08-30T03:50:44.167Z,2.57
2022-08-30T03:53:13.245Z,2.40
2022-08-30T03:55:41.754Z,2.60
2022-08-30T03:58:10.244Z,2.50
2022-08-30T04:00:38.786Z,2.57
2022-08-30T04:03:07.441Z,3.10
2022-08-30T04:05:35.920Z,2.10
2022-08-30T04:08:06.349Z,2.63
2022-08-30T04:10:35.279Z,2.97
2022-08-30T04:13:04.175Z,3.03
2022-08-30T04:15:32.577Z,2.50
2022-08-30T04:18:00.974Z,2.80
2022-08-30T04:20:29.493Z,3.00
2022-08-30T04:22:57.907Z,2.23
2022-08-30T04:25:27.961Z,2.80
2022-08-30T04:27:56.576Z,3.00
2022-08-30T04:30:25.057Z,3.27
2022-08-30T04:32:58.091Z,3.37
2022-08-30T04:35:27.685Z,2.33
2022-08-30T04:37:56.149Z,2.77
2022-08-30T04:40:24.618Z,2.40
2022-08-30T04:42:54.622Z,3.40
2022-08-30T04:45:23.875Z,3.20
2022-08-30T04:47:52.357Z,3.10
2022-08-30T04:50:22.635Z,2.97
2022-08-30T04:52:51.132Z,3.23
2022-08-30T04:55:20.489Z,3.50
2022-08-30T04:57:49.456Z,2.50
2022-08-30T05:00:20.691Z,2.60
2022-08-30T05:02:50.585Z,2.83
2022-08-30T05:05:37.146Z,3.37
2022-08-30T05:08:06.183Z,2.40
2022-08-30T05:10:35.817Z,3.20
2022-08-30T05:13:04.227Z,2.57
2022-08-30T05:15:34.146Z,3.90
2022-08-30T05:18:03.125Z,3.40
2022-08-30T05:20:31.725Z,2.90
2022-08-30T05:23:00.396Z,3.40
2022-08-30T05:25:32.314Z,2.80
2022-08-30T05:28:00.998Z,2.90
2022-08-30T05:30:34.979Z,2.70
2022-08-30T05:33:04.014Z,3.60
2022-08-30T05:35:32.795Z,3.27
2022-08-30T05:38:01.177Z,3.57
2022-08-30T05:40:29.704Z,3.10
2022-08-30T05:42:58.142Z,3.97
2022-08-30T05:45:26.556Z,3.00
2022-08-30T05:47:56.471Z,3.60
2022-08-30T05:50:24.965Z,3.33
2022-08-30T05:52:53.453Z,3.27
2022-08-30T05:55:22.330Z,3.00
2022-08-30T05:57:50.784Z,3.13
2022-08-30T06:00:20.753Z,3.10
2022-08-30T06:02:49.255Z,3.43
2022-08-30T06:05:19.550Z,3.90
2022-08-30T06:07:47.945Z,3.90
2022-08-30T06:10:16.861Z,3.17
2022-08-30T06:12:45.759Z,3.67
2022-08-30T06:15:14.501Z,3.03
2022-08-30T06:17:43.621Z,3.70
2022-08-30T06:20:14.132Z,3.80
2022-08-30T06:22:43.903Z,4.90
2022-08-30T06:25:14.321Z,3.80
2022-08-30T06:27:42.899Z,3.63
2022-08-30T06:30:12.416Z,4.23
2022-08-30T06:32:40.925Z,3.90
2022-08-30T06:35:10.428Z,3.40
2022-08-30T06:37:38.837Z,4.27
2022-08-30T06:40:11.215Z,3.20
2022-08-30T06:42:39.691Z,3.57
2022-08-30T06:45:10.994Z,3.67
2022-08-30T06:47:40.847Z,2.53
2022-08-30T06:50:12.242Z,3.70
2022-08-30T06:52:42.348Z,3.37
2022-08-30T06:55:15.646Z,3.30
2022-08-30T06:57:44.518Z,3.50
2022-08-30T07:00:16.645Z,2.77
2022-08-30T07:02:45.147Z,3.83
2022-08-30T07:05:18.160Z,3.30
2022-08-30T07:07:47.435Z,3.00
2022-08-30T07:10:17.538Z,3.17
2022-08-30T07:12:46.119Z,2.80
2022-08-30T07:15:15.034Z,2.70
2022-08-30T07:18:00.852Z,3.47
2022-08-30T07:20:39.816Z,3.50
2022-08-30T07:23:09.391Z,3.60
2022-08-30T07:25:40.443Z,2.87
2022-08-30T07:28:10.320Z,3.13
2022-08-30T07:30:39.067Z,2.87
2022-08-30T07:33:07.674Z,2.80
2022-08-30T07:35:37.295Z,3.10
2022-08-30T07:38:05.742Z,3.07
2022-08-30T07:40:34.224Z,2.70
2022-08-30T07:43:04.134Z,2.97
2022-08-30T07:45:32.580Z,3.10
2022-08-30T07:48:04.752Z,3.20
2022-08-30T07:50:33.142Z,2.70
2022-08-30T07:53:01.582Z,2.80
2022-08-30T07:55:29.986Z,3.17
2022-08-30T07:57:58.901Z,2.90
2022-08-30T08:00:28.822Z,3.20
2022-08-30T08:02:57.297Z,2.90
2022-08-30T08:05:25.762Z,2.83
2022-08-30T08:07:54.115Z,2.60
2022-08-30T08:10:23.016Z,3.57
2022-08-30T08:12:52.219Z,2.90
2022-08-30T08:15:20.804Z,2.97
2022-08-30T08:17:50.599Z,3.30
2022-08-30T08:20:19.203Z,3.00
2022-08-30T08:22:47.594Z,3.37
2022-08-30T08:25:16.374Z,2.80
2022-08-30T08:27:44.790Z,2.80
2022-08-30T08:30:14.614Z,4.33
2022-08-30T08:32:43.041Z,3.10
2022-08-30T08:35:13.190Z,3.20
2022-08-30T08:37:41.942Z,3.50
2022-08-30T08:40:15.724Z,3.10
2022-08-30T08:43:00.592Z,4.47
2022-08-30T08:45:43.385Z,2.90
2022-08-30T08:48:28.832Z,3.20
2022-08-30T08:51:21.265Z,4.73
2022-08-30T08:53:57.648Z,3.00
2022-08-30T08:56:26.373Z,2.80
2022-08-30T08:58:57.448Z,2.83
2022-08-30T09:01:30.159Z,3.43
2022-08-30T09:04:02.907Z,3.10
2022-08-30T09:06:50.199Z,3.00
2022-08-30T09:09:23.120Z,3.20
2022-08-30T09:11:51.645Z,2.90
2022-08-30T09:14:25.176Z,2.70
2022-08-30T09:17:03.218Z,2.80
2022-08-30T09:19:42.704Z,3.40
2022-08-30T09:22:36.123Z,2.93
2022-08-30T09:25:08.661Z,3.50
2022-08-30T09:27:39.016Z,2.90
2022-08-30T09:30:14.966Z,2.73
2022-08-30T09:32:51.458Z,3.37
2022-08-30T09:35:22.708Z,3.10
2022-08-30T09:37:57.820Z,3.70
2022-08-30T09:40:30.562Z,2.60
2022-08-30T09:43:07.882Z,3.27
2022-08-30T09:45:40.595Z,3.27
2022-08-30T09:48:40.551Z,3.10
2022-08-30T09:51:40.215Z,3.00
2022-08-30T09:54:20.732Z,3.03
2022-08-30T09:57:11.670Z,2.67
2022-08-30T09:59:48.222Z,3.30
2022-08-30T10:02:42.354Z,3.07
2022-08-30T10:05:20.123Z,2.50
2022-08-30T10:08:00.088Z,2.53
2022-08-30T10:10:40.880Z,2.70
2022-08-30T10:13:56.774Z,2.90
2022-08-30T10:16:41.659Z,2.70
2022-08-30T10:19:29.639Z,2.67
2022-08-30T10:22:05.812Z,3.17
2022-08-30T10:24:40.398Z,2.20
2022-08-30T10:27:19.378Z,2.33
2022-08-30T10:29:55.454Z,3.00
2022-08-30T10:32:29.465Z,3.07
2022-08-30T10:35:14.286Z,2.40
2022-08-30T10:37:49.736Z,3.10
2022-08-30T10:40:44.557Z,2.57
2022-08-30T10:43:24.977Z,2.77
2022-08-30T10:46:01.347Z,3.13
2022-08-30T10:48:39.908Z,2.23
2022-08-30T10:51:19.690Z,3.00
2022-08-30T10:53:55.381Z,2.20
2022-08-30T10:56:26.994Z,2.60
2022-08-30T10:58:59.238Z,2.53
2022-08-30T11:01:46.533Z,2.40
2022-08-30T11:04:45.518Z,2.80
2022-08-30T11:07:28.300Z,2.90
2022-08-30T11:10:32.849Z,2.50
2022-08-30T11:13:05.269Z,2.90
2022-08-30T11:15:40.164Z,2.37
2022-08-30T11:18:15.226Z,2.40
2022-08-30T11:20:46.568Z,2.67
2022-08-30T11:23:30.527Z,2.97
2022-08-30T11:26:05.193Z,2.20
2022-08-30T11:29:07.751Z,2.83
2022-08-30T11:31:44.747Z,2.77
2022-08-30T11:34:55.172Z,2.60
2022-08-30T11:37:41.587Z,3.30
2022-08-30T11:40:48.308Z,2.73
2022-08-30T11:43:56.113Z,2.83
2022-08-30T11:46:40.187Z,2.70
2022-08-30T11:49:48.358Z,3.40
2022-08-30T11:52:35.383Z,2.80
2022-08-30T11:55:35.211Z,3.60
2022-08-30T11:58:31.283Z,3.10
2022-08-30T12:01:50.112Z,2.70
2022-08-30T12:04:37.554Z,3.03
2022-08-30T12:07:10.132Z,3.80
2022-08-30T12:10:03.340Z,3.40
2022-08-30T12:12:57.039Z,3.00
2022-08-30T12:15:58.269Z,3.30
2022-08-30T12:18:39.105Z,3.27
2022-08-30T12:21:28.168Z,3.20
2022-08-30T12:24:07.653Z,3.93
2022-08-30T12:26:39.445Z,3.00
2022-08-30T12:29:16.228Z,3.60
2022-08-30T12:31:49.217Z,3.83
2022-08-30T12:34:28.641Z,2.80
2022-08-30T12:37:03.014Z,3.20
2022-08-30T12:39:38.208Z,3.30
2022-08-30T12:42:17.914Z,3.60
2022-08-30T12:44:48.394Z,2.97
2022-08-30T12:47:21.384Z,3.23
2022-08-30T12:49:51.062Z,3.50
2022-08-30T12:52:35.197Z,3.17
2022-08-30T12:55:19.155Z,3.70
2022-08-30T12:58:01.015Z,3.10
2022-08-30T13:00:32.771Z,3.07
2022-08-30T13:03:16.306Z,2.70
2022-08-30T13:05:50.016Z,3.07
2022-08-30T13:08:25.412Z,3.20
2022-08-30T13:11:08.302Z,3.20
2022-08-30T13:13:44.400Z,3.17
2022-08-30T13:16:25.403Z,3.00
2022-08-30T13:18:57.572Z,3.20
2022-08-30T13:21:31.028Z,3.20
2022-08-30T13:24:02.058Z,3.07
2022-08-30T13:26:35.474Z,4.00
2022-08-30T13:29:10.323Z,3.30
2022-08-30T13:31:39.427Z,3.27
2022-08-30T13:34:09.267Z,2.80
2022-08-30T13:36:45.831Z,3.27
2022-08-30T13:39:16.632Z,2.87
2022-08-30T13:41:51.532Z,3.27
2022-08-30T13:44:20.418Z,3.03
2022-08-30T13:46:54.428Z,2.87
2022-08-30T13:52:22.853Z,3.00
2022-08-30T13:54:52.886Z,3.47
2022-08-30T14:00:19.706Z,4.00
2022-08-30T14:02:54.691Z,3.50
2022-08-30T14:11:06.857Z,3.47
2022-08-30T14:13:37.425Z,3.00
2022-08-30T14:18:58.787Z,2.97
2022-08-30T14:21:27.797Z,3.43
2022-08-30T14:23:57.697Z,3.43
2022-08-30T14:26:32.517Z,3.53
2022-08-30T14:29:05.510Z,3.20
2022-08-30T14:31:38.618Z,3.20
2022-08-30T14:34:09.200Z,3.20
2022-08-30T14:36:42.980Z,2.60
2022-08-30T14:39:15.242Z,3.13
2022-08-30T14:41:47.529Z,3.10
2022-08-30T14:44:19.395Z,3.03
2022-08-30T14:46:48.890Z,3.30
2022-08-30T14:49:20.734Z,3.70
2022-08-30T14:51:50.152Z,3.10
2022-08-30T14:54:23.225Z,3.17
2022-08-30T14:56:54.417Z,3.37
2022-08-30T14:59:25.211Z,3.10
2022-08-30T15:01:54.325Z,3.20
2022-08-30T15:04:23.082Z,3.03
2022-08-30T15:06:52.085Z,3.67
2022-08-30T15:09:23.875Z,3.43
2022-08-30T15:11:55.108Z,3.90
2022-08-30T15:14:26.393Z,3.30
2022-08-30T15:16:58.371Z,2.90
2022-08-30T15:19:27.837Z,3.10
2022-08-30T15:22:02.743Z,2.90
2022-08-30T15:24:32.419Z,2.70
2022-08-30T15:27:02.229Z,3.00
2022-08-30T15:29:32.284Z,3.43
2022-08-30T15:32:02.176Z,4.20
2022-08-30T15:34:31.547Z,4.10
2022-08-30T15:37:00.255Z,3.73
2022-08-30T15:39:29.145Z,3.00
2022-08-30T15:42:01.193Z,3.10
2022-08-30T15:44:31.799Z,3.00
2022-08-30T15:47:00.557Z,3.10
2022-08-30T15:49:29.818Z,3.03
2022-08-30T15:52:02.343Z,2.93
2022-08-30T15:54:31.954Z,3.50
2022-08-30T15:57:01.418Z,3.37
2022-08-30T15:59:32.950Z,2.83
2022-08-30T16:02:01.562Z,3.70
2022-08-30T16:04:30.062Z,3.40
2022-08-30T16:06:58.758Z,3.50
2022-08-30T16:09:29.980Z,3.37
2022-08-30T16:12:01.638Z,3.17
2022-08-30T16:14:30.133Z,3.07
2022-08-30T16:17:00.751Z,3.60
2022-08-30T16:19:29.623Z,3.50
2022-08-30T16:21:58.541Z,3.17
2022-08-30T16:24:27.768Z,2.87
2022-08-30T16:26:56.338Z,3.40
2022-08-30T16:29:24.720Z,3.60
2022-08-30T16:31:53.154Z,3.80
2022-08-30T16:34:23.453Z,3.70
2022-08-30T16:36:54.442Z,3.70
2022-08-30T16:39:22.861Z,3.50
2022-08-30T16:41:51.312Z,3.13
2022-08-30T16:44:19.753Z,3.10
2022-08-30T16:46:52.572Z,3.60
2022-08-30T16:49:25.407Z,4.00
2022-08-30T16:51:54.457Z,4.00
2022-08-30T16:54:23.708Z,3.70
2022-08-30T16:56:52.798Z,5.37
2022-08-30T16:59:21.222Z,3.17
2022-08-30T17:01:50.468Z,3.67
2022-08-30T17:04:19.873Z,3.57
2022-08-30T17:06:51.078Z,3.50
2022-08-30T17:09:20.575Z,4.27
2022-08-30T17:11:49.823Z,3.50
2022-08-30T17:14:27.669Z,3.97
2022-08-30T17:16:58.357Z,3.77
2022-08-30T17:19:29.376Z,3.83
2022-08-30T17:21:59.493Z,3.70
2022-08-30T17:24:28.571Z,3.87
2022-08-30T17:26:58.164Z,4.07
2022-08-30T17:29:27.287Z,4.63
2022-08-30T17:31:55.963Z,3.70
2022-08-30T17:34:27.216Z,3.73
2022-08-30T17:36:59.961Z,3.80
2022-08-30T17:39:28.974Z,3.73
2022-08-30T17:41:57.675Z,3.63
2022-08-30T17:44:29.715Z,4.17
2022-08-30T17:46:59.648Z,3.10
2022-08-30T17:49:30.293Z,3.93
2022-08-30T17:52:00.419Z,3.90
2022-08-30T17:54:31.707Z,4.07
2022-08-30T17:57:00.845Z,3.53
2022-08-30T17:59:31.714Z,3.80
2022-08-30T18:02:02.314Z,3.70
2022-08-30T18:04:31.507Z,3.20
2022-08-30T18:07:01.373Z,3.70
2022-08-30T18:09:33.811Z,3.50
2022-08-30T18:12:02.488Z,3.80
2022-08-30T18:14:31.452Z,4.00
2022-08-30T18:17:00.989Z,3.80
2022-08-30T18:19:32.156Z,4.00
2022-08-30T18:22:03.158Z,3.50
2022-08-30T18:24:32.643Z,4.17
2022-08-30T18:27:02.342Z,3.83
2022-08-30T18:29:32.174Z,4.60
2022-08-30T18:32:02.263Z,4.60
2022-08-30T18:34:31.145Z,4.17
2022-08-30T18:37:01.343Z,4.10
2022-08-30T18:39:34.434Z,4.50
2022-08-30T18:42:03.848Z,4.10
2022-08-30T18:44:33.375Z,3.97
2022-08-30T18:47:05.638Z,4.37
2022-08-30T18:49:36.925Z,4.20
2022-08-30T18:52:09.831Z,4.50
2022-08-30T18:54:49.721Z,4.30
2022-08-30T18:57:20.924Z,4.07
2022-08-30T18:59:50.669Z,4.00
2022-08-30T19:02:19.650Z,5.60
2022-08-30T19:04:49.208Z,5.00
2022-08-30T19:07:20.100Z,5.57
2022-08-30T19:09:48.918Z,4.70
2022-08-30T19:12:19.712Z,3.80
2022-08-30T19:14:49.468Z,3.93
2022-08-30T19:17:17.874Z,3.80
2022-08-30T19:19:49.201Z,4.27
2022-08-30T19:22:27.436Z,4.90
2022-08-30T19:24:58.797Z,4.20
2022-08-30T19:27:38.040Z,4.10
2022-08-30T19:30:13.521Z,4.20
2022-08-30T19:32:44.729Z,5.20
2022-08-30T19:35:16.434Z,4.33
2022-08-30T19:37:47.759Z,3.80
2022-08-30T19:40:19.715Z,4.50
2022-08-30T19:42:50.495Z,4.33
2022-08-30T19:45:22.731Z,4.20
2022-08-30T19:47:53.297Z,4.00
2022-08-30T19:50:22.951Z,4.73
2022-08-30T19:52:54.960Z,4.07
2022-08-30T19:55:28.581Z,4.07
2022-08-30T19:57:58.594Z,4.67
2022-08-30T20:00:27.214Z,3.90
2022-08-30T20:02:59.386Z,4.67
2022-08-30T20:05:27.879Z,4.37
2022-08-30T20:07:58.358Z,3.43
2022-08-30T20:10:27.365Z,4.00
2022-08-30T20:12:55.962Z,3.93
2022-08-30T20:15:25.763Z,3.90
2022-08-30T20:18:13.449Z,4.03
2022-08-30T20:20:49.914Z,4.90
2022-08-30T20:23:21.726Z,4.40
2022-08-30T20:25:52.058Z,3.90
2022-08-30T20:28:21.843Z,3.83
2022-08-30T20:30:50.693Z,4.27
2022-08-30T20:33:19.625Z,3.73
2022-08-30T20:35:49.774Z,3.90
2022-08-30T20:38:21.956Z,4.93
2022-08-30T20:40:53.409Z,3.90
2022-08-30T20:43:24.696Z,4.43
2022-08-30T20:45:55.367Z,3.50
2022-08-30T20:48:26.155Z,4.33
2022-08-30T20:50:54.761Z,3.80
2022-08-30T20:53:24.750Z,4.17
2022-08-30T20:55:53.240Z,4.20
2022-08-30T20:58:21.723Z,3.93
2022-08-30T21:00:54.413Z,3.70
2022-08-30T21:03:25.949Z,4.00
2022-08-30T21:05:57.294Z,4.10
2022-08-30T21:08:27.605Z,4.90
2022-08-30T21:10:56.865Z,5.07
2022-08-30T21:13:25.517Z,3.77
2022-08-30T21:15:55.370Z,4.03
2022-08-30T21:18:31.160Z,3.83
2022-08-30T21:21:00.090Z,4.67
2022-08-30T21:23:29.978Z,3.67
2022-08-30T21:26:05.080Z,4.53
2022-08-30T21:28:34.177Z,3.50
2022-08-30T21:31:08.638Z,4.00
2022-08-30T21:33:37.611Z,3.17
2022-08-30T21:36:24.477Z,3.80
2022-08-30T21:38:57.516Z,3.57
2022-08-30T21:41:31.626Z,4.03
2022-08-30T21:44:02.457Z,4.10
2022-08-30T21:46:32.780Z,3.70
2022-08-30T21:49:03.780Z,4.20
2022-08-30T21:51:35.718Z,3.87
2022-08-30T21:54:07.268Z,3.70
2022-08-30T21:56:36.820Z,3.50
2022-08-30T21:59:07.374Z,3.97
2022-08-30T22:01:37.764Z,4.30
2022-08-30T22:04:10.066Z,4.37
2022-08-30T22:06:41.787Z,4.40
2022-08-30T22:09:20.585Z,3.70
2022-08-30T22:11:50.026Z,4.07
2022-08-30T22:14:20.095Z,3.33
2022-08-30T22:16:48.895Z,4.77
2022-08-30T22:19:22.390Z,3.43
2022-08-30T22:21:51.928Z,4.20
2022-08-30T22:24:23.685Z,3.80
2022-08-30T22:26:52.030Z,3.90
2022-08-30T22:29:20.443Z,3.60
2022-08-30T22:31:48.937Z,3.73
2022-08-30T22:34:17.821Z,3.87
2022-08-30T22:36:46.329Z,3.93
2022-08-30T22:39:14.828Z,3.20
2022-08-30T22:41:44.881Z,3.43
2022-08-30T22:44:13.676Z,4.10
2022-08-30T22:46:42.120Z,4.30
2022-08-30T22:49:12.196Z,4.13
2022-08-30T22:51:42.699Z,3.67
2022-08-30T22:54:12.065Z,3.80
2022-08-30T22:56:40.723Z,3.30
2022-08-30T22:59:10.586Z,3.37
2022-08-30T23:01:43.317Z,4.00
2022-08-30T23:04:13.409Z,3.50
2022-08-30T23:06:41.993Z,4.40
2022-08-30T23:09:18.438Z,4.07
2022-08-30T23:11:46.871Z,3.87
2022-08-30T23:14:16.792Z,3.67
2022-08-30T23:16:45.250Z,4.00
2022-08-30T23:19:13.931Z,3.27
2022-08-30T23:21:42.656Z,4.13
2022-08-30T23:24:28.647Z,4.00
2022-08-30T23:27:14.397Z,3.50
2022-08-30T23:30:01.776Z,3.77
2022-08-30T23:32:47.856Z,4.30
2022-08-30T23:35:33.890Z,3.80
2022-08-30T23:38:23.839Z,4.13
2022-08-30T23:41:09.897Z,4.00
2022-08-30T23:43:56.174Z,3.93
2022-08-30T23:46:43.421Z,3.63
2022-08-30T23:49:29.126Z,4.10
2022-08-30T23:52:15.016Z,4.17
2022-08-30T23:55:00.793Z,3.90
2022-08-30T23:57:47.149Z,4.27
